createdAt,value
2023-04-30T00:00:52.065Z,9.17
2023-04-30T00:03:24.171Z,9.18
2023-04-30T00:05:54.063Z,9.16
2023-04-30T00:08:26.078Z,9.15
2023-04-30T00:10:56.043Z,9.11
2023-04-30T00:13:27.028Z,9.08
2023-04-30T00:16:04.046Z,9.08
2023-04-30T00:18:41.019Z,9.05
2023-04-30T00:21:11.599Z,9.02
2023-04-30T00:23:43.005Z,8.93
2023-04-30T00:26:14.040Z,8.86
2023-04-30T00:28:47.010Z,8.87
2023-04-30T00:31:17.989Z,8.88
2023-04-30T00:33:48.424Z,8.86
2023-04-30T00:36:23.186Z,8.83
2023-04-30T00:38:53.267Z,8.81
2023-04-30T00:41:23.022Z,8.78
2023-04-30T00:43:51.982Z,8.77
2023-04-30T00:54:13.864Z,8.71
2023-04-30T00:56:41.215Z,8.65
2023-04-30T00:59:08.669Z,8.65
2023-04-30T01:01:39.128Z,8.65
2023-04-30T01:04:06.254Z,8.65
2023-04-30T01:06:34.582Z,8.63
2023-04-30T01:09:02.124Z,8.60
2023-04-30T01:11:50.786Z,8.57
2023-04-30T01:14:23.878Z,8.56
2023-04-30T01:17:00.800Z,8.56
2023-04-30T01:19:44.803Z,8.53
2023-04-30T01:22:35.849Z,8.49
2023-04-30T01:25:31.172Z,8.47
2023-04-30T01:28:06.314Z,8.43
2023-04-30T01:30:33.797Z,8.43
2023-04-30T01:33:01.077Z,8.41
2023-04-30T01:35:56.297Z,8.39
2023-04-30T01:38:30.631Z,8.36
2023-04-30T01:41:40.759Z,8.36
2023-04-30T01:44:13.778Z,8.34
2023-04-30T01:46:41.443Z,8.32
2023-04-30T01:49:28.928Z,8.29
2023-04-30T01:52:03.428Z,8.28
2023-04-30T01:54:36.023Z,8.28
2023-04-30T01:57:05.459Z,8.26
2023-04-30T01:59:34.810Z,8.23
2023-04-30T02:02:02.131Z,8.23
2023-04-30T02:04:29.456Z,8.22
2023-04-30T02:06:58.663Z,8.21
2023-04-30T02:09:25.719Z,8.21
2023-04-30T02:11:53.131Z,8.20
2023-04-30T02:14:20.641Z,8.21
2023-04-30T02:16:47.936Z,8.19
2023-04-30T02:19:15.580Z,8.19
2023-04-30T02:21:42.729Z,8.22
2023-04-30T02:24:09.745Z,8.24
2023-04-30T02:26:36.815Z,8.27
2023-04-30T02:29:03.818Z,8.28
2023-04-30T02:31:33.554Z,8.29
2023-04-30T02:34:09.127Z,8.32
2023-04-30T02:36:36.720Z,8.35
2023-04-30T02:39:04.686Z,8.35
2023-04-30T02:41:31.680Z,8.34
2023-04-30T02:43:59.412Z,8.33
2023-04-30T02:46:27.000Z,8.33
2023-04-30T02:48:54.043Z,8.33
2023-04-30T02:51:21.176Z,8.33
2023-04-30T02:53:48.171Z,8.32
2023-04-30T02:56:15.321Z,8.31
2023-04-30T02:58:42.302Z,8.33
2023-04-30T03:01:13.452Z,8.35
2023-04-30T03:03:40.701Z,8.36
2023-04-30T03:06:07.707Z,8.37
2023-04-30T03:08:34.960Z,8.36
2023-04-30T03:11:03.074Z,8.33
2023-04-30T03:13:30.317Z,8.31
2023-04-30T03:16:02.187Z,8.28
2023-04-30T03:18:30.057Z,8.25
2023-04-30T03:20:57.619Z,8.25
2023-04-30T03:23:26.870Z,8.24
2023-04-30T03:25:53.877Z,8.28
2023-04-30T03:28:22.871Z,8.28
2023-04-30T03:30:50.179Z,8.28
2023-04-30T03:33:17.695Z,8.27
2023-04-30T03:35:44.873Z,8.23
2023-04-30T03:38:11.842Z,8.19
2023-04-30T03:40:38.901Z,8.18
2023-04-30T03:43:05.956Z,8.17
2023-04-30T03:45:33.240Z,8.17
2023-04-30T03:48:00.203Z,8.16
2023-04-30T03:50:27.277Z,8.18
2023-04-30T03:52:54.331Z,8.19
2023-04-30T03:55:21.808Z,8.20
2023-04-30T03:57:48.804Z,8.21
2023-04-30T04:00:17.117Z,8.24
2023-04-30T04:02:47.493Z,8.28
2023-04-30T04:05:15.778Z,8.30
2023-04-30T04:07:45.374Z,8.32
2023-04-30T04:10:12.528Z,8.32
2023-04-30T04:12:41.089Z,8.32
2023-04-30T04:15:09.093Z,8.32
2023-04-30T04:17:36.931Z,8.32
2023-04-30T04:20:05.984Z,8.30
2023-04-30T04:22:35.510Z,8.29
2023-04-30T04:25:02.588Z,8.30
2023-04-30T04:27:30.461Z,8.30
2023-04-30T04:29:57.565Z,8.30
2023-04-30T04:32:24.555Z,8.29
2023-04-30T04:34:53.876Z,8.29
2023-04-30T04:37:21.272Z,8.28
2023-04-30T04:39:48.661Z,8.26
2023-04-30T04:42:17.707Z,8.28
2023-04-30T04:44:45.088Z,8.30
2023-04-30T04:47:12.432Z,8.32
2023-04-30T04:49:39.523Z,8.35
2023-04-30T04:52:07.756Z,8.37
2023-04-30T04:54:34.865Z,8.39
2023-04-30T04:57:02.703Z,8.42
2023-04-30T04:59:29.756Z,8.43
2023-04-30T05:01:56.839Z,8.45
2023-04-30T05:04:27.398Z,8.45
2023-04-30T05:06:54.493Z,8.49
2023-04-30T05:09:21.971Z,8.52
2023-04-30T05:11:49.005Z,8.54
2023-04-30T05:14:16.831Z,8.45
2023-04-30T05:16:45.124Z,8.46
2023-04-30T05:19:12.607Z,8.52
2023-04-30T05:21:40.929Z,8.58
2023-04-30T05:24:08.031Z,8.61
2023-04-30T05:26:35.898Z,8.60
2023-04-30T05:29:02.989Z,8.61
2023-04-30T05:31:31.972Z,8.64
2023-04-30T05:33:59.289Z,8.66
2023-04-30T05:36:26.399Z,8.64
2023-04-30T05:38:53.383Z,8.65
2023-04-30T05:41:20.908Z,8.68
2023-04-30T05:43:52.369Z,8.73
2023-04-30T05:46:21.609Z,8.72
2023-04-30T05:48:49.741Z,8.72
2023-04-30T05:51:18.118Z,8.72
2023-04-30T05:53:47.377Z,8.74
2023-04-30T05:56:19.308Z,8.77
2023-04-30T05:58:46.614Z,8.82
2023-04-30T06:01:13.777Z,8.88
2023-04-30T06:03:40.902Z,8.91
2023-04-30T06:06:08.377Z,8.91
2023-04-30T06:08:35.784Z,8.83
2023-04-30T06:11:04.637Z,8.84
2023-04-30T06:13:32.014Z,8.86
2023-04-30T06:15:59.008Z,8.73
2023-04-30T06:18:25.981Z,8.57
2023-04-30T06:20:53.110Z,8.54
2023-04-30T06:23:20.379Z,8.64
2023-04-30T06:25:47.320Z,8.72
2023-04-30T06:28:14.377Z,8.66
2023-04-30T06:30:41.390Z,8.61
2023-04-30T06:33:09.339Z,8.61
2023-04-30T06:35:36.717Z,8.61
2023-04-30T06:38:03.840Z,8.65
2023-04-30T06:40:30.855Z,8.72
2023-04-30T06:42:58.984Z,8.72
2023-04-30T06:45:26.448Z,8.74
2023-04-30T06:47:53.585Z,8.70
2023-04-30T06:50:21.765Z,8.79
2023-04-30T06:52:48.916Z,8.80
2023-04-30T06:55:16.477Z,8.80
2023-04-30T06:57:46.228Z,8.85
2023-04-30T07:00:16.518Z,8.87
2023-04-30T07:02:44.125Z,8.87
2023-04-30T07:05:11.643Z,8.93
2023-04-30T07:07:38.992Z,8.95
2023-04-30T07:10:07.296Z,8.99
2023-04-30T07:12:34.425Z,8.95
2023-04-30T07:15:03.319Z,9.03
2023-04-30T07:17:31.274Z,9.15
2023-04-30T07:19:59.100Z,9.29
2023-04-30T07:22:27.641Z,9.26
2023-04-30T07:24:55.179Z,9.26
2023-04-30T07:27:22.517Z,9.28
2023-04-30T07:29:49.820Z,9.21
2023-04-30T07:32:17.104Z,9.21
2023-04-30T07:34:44.208Z,9.12
2023-04-30T07:37:11.406Z,9.11
2023-04-30T07:39:38.784Z,9.19
2023-04-30T07:42:06.248Z,9.33
2023-04-30T07:44:33.717Z,9.38
2023-04-30T07:47:01.269Z,9.47
2023-04-30T07:49:28.495Z,9.54
2023-04-30T07:51:56.499Z,9.57
2023-04-30T07:54:23.798Z,9.59
2023-04-30T07:56:50.975Z,9.63
2023-04-30T07:59:18.605Z,9.63
2023-04-30T08:01:49.410Z,9.56
2023-04-30T08:04:16.708Z,9.43
2023-04-30T08:06:44.343Z,9.38
2023-04-30T08:09:15.224Z,9.38
2023-04-30T08:11:42.297Z,9.42
2023-04-30T08:14:09.551Z,9.49
2023-04-30T08:16:36.876Z,9.53
2023-04-30T08:19:04.865Z,9.58
2023-04-30T08:21:33.487Z,9.47
2023-04-30T08:24:00.859Z,9.52
2023-04-30T08:26:30.829Z,9.65
2023-04-30T08:28:58.090Z,9.71
2023-04-30T08:31:25.760Z,9.68
2023-04-30T08:33:53.960Z,9.72
2023-04-30T08:36:21.263Z,9.68
2023-04-30T08:38:50.729Z,9.74
2023-04-30T08:41:19.172Z,9.79
2023-04-30T08:43:47.066Z,9.65
2023-04-30T08:46:16.576Z,9.65
2023-04-30T08:48:44.355Z,9.73
2023-04-30T08:51:12.170Z,9.76
2023-04-30T08:53:39.773Z,9.70
2023-04-30T08:56:10.016Z,9.65
2023-04-30T08:58:39.144Z,9.55
2023-04-30T09:01:08.088Z,9.57
2023-04-30T09:03:35.319Z,9.65
2023-04-30T09:06:02.899Z,9.63
2023-04-30T09:08:49.125Z,9.62
2023-04-30T09:11:30.119Z,9.67
2023-04-30T09:13:58.333Z,9.69
2023-04-30T09:16:26.966Z,9.76
2023-04-30T09:18:54.175Z,9.78
2023-04-30T09:21:32.927Z,9.82
2023-04-30T09:24:04.784Z,9.78
2023-04-30T09:26:39.590Z,9.79
2023-04-30T09:29:10.954Z,9.80
2023-04-30T09:31:42.825Z,9.85
2023-04-30T09:34:11.815Z,9.98
2023-04-30T09:36:59.771Z,10.04
2023-04-30T09:39:28.498Z,10.05
2023-04-30T09:42:09.632Z,10.02
2023-04-30T09:44:38.546Z,9.96
2023-04-30T09:47:13.037Z,9.96
2023-04-30T09:49:45.215Z,9.97
2023-04-30T09:52:12.300Z,9.98
2023-04-30T09:54:40.995Z,10.02
2023-04-30T09:57:13.932Z,10.01
2023-04-30T09:59:47.650Z,9.99
2023-04-30T10:02:16.772Z,10.00
2023-04-30T10:04:45.310Z,9.98
2023-04-30T10:07:16.070Z,10.00
2023-04-30T10:09:50.575Z,10.06
2023-04-30T10:12:38.469Z,10.06
2023-04-30T10:15:21.451Z,10.02
2023-04-30T10:17:52.213Z,10.10
2023-04-30T10:20:19.352Z,10.08
2023-04-30T10:22:47.699Z,10.04
2023-04-30T10:25:16.309Z,10.03
2023-04-30T10:27:43.389Z,10.01
2023-04-30T10:30:12.015Z,9.94
2023-04-30T10:32:51.327Z,9.84
2023-04-30T10:35:27.512Z,9.89
2023-04-30T10:38:21.346Z,9.92
2023-04-30T10:40:50.218Z,9.89
2023-04-30T10:43:22.129Z,9.94
2023-04-30T10:45:50.043Z,10.05
2023-04-30T10:48:24.693Z,10.13
2023-04-30T10:50:58.521Z,10.17
2023-04-30T10:53:27.591Z,10.23
2023-04-30T10:56:05.847Z,10.29
2023-04-30T10:58:34.212Z,10.36
2023-04-30T11:01:07.979Z,10.37
2023-04-30T11:03:36.034Z,10.42
2023-04-30T11:06:13.236Z,10.43
2023-04-30T11:08:43.977Z,10.32
2023-04-30T11:11:11.222Z,10.37
2023-04-30T11:13:45.879Z,10.36
2023-04-30T11:16:15.545Z,10.33
2023-04-30T11:18:46.658Z,10.34
2023-04-30T11:21:13.836Z,10.36
2023-04-30T11:23:45.178Z,10.34
2023-04-30T11:26:12.494Z,10.26
2023-04-30T11:28:46.866Z,10.23
2023-04-30T11:31:15.379Z,10.20
2023-04-30T11:33:43.339Z,10.15
2023-04-30T11:36:10.830Z,10.10
2023-04-30T11:38:39.518Z,10.05
2023-04-30T11:41:06.716Z,10.04
2023-04-30T11:43:34.755Z,10.10
2023-04-30T11:46:12.705Z,10.16
2023-04-30T11:48:44.214Z,10.24
2023-04-30T11:51:18.871Z,10.32
2023-04-30T11:53:46.873Z,10.32
2023-04-30T11:56:14.084Z,10.28
2023-04-30T11:58:41.490Z,10.24
2023-04-30T12:01:10.550Z,10.24
2023-04-30T12:03:42.690Z,10.21
2023-04-30T12:06:11.647Z,10.16
2023-04-30T12:08:41.055Z,10.19
2023-04-30T12:11:23.093Z,10.20
2023-04-30T12:13:55.386Z,10.18
2023-04-30T12:16:24.833Z,10.20
2023-04-30T12:18:53.280Z,10.25
2023-04-30T12:21:22.486Z,10.22
2023-04-30T12:23:51.580Z,10.21
2023-04-30T12:26:18.872Z,10.22
2023-04-30T12:28:49.941Z,10.18
2023-04-30T12:31:17.974Z,10.14
2023-04-30T12:33:54.474Z,10.06
2023-04-30T12:36:21.840Z,10.00
2023-04-30T12:38:49.730Z,9.99
2023-04-30T12:41:18.870Z,10.00
2023-04-30T12:43:49.723Z,10.00
2023-04-30T12:46:27.360Z,10.03
2023-04-30T12:48:56.314Z,9.98
2023-04-30T12:51:23.768Z,9.95
2023-04-30T12:53:51.153Z,9.95
2023-04-30T12:56:20.377Z,9.92
2023-04-30T12:59:04.607Z,9.98
2023-04-30T13:01:46.093Z,10.03
2023-04-30T13:04:13.921Z,10.05
2023-04-30T13:06:42.122Z,10.03
2023-04-30T13:09:10.831Z,10.01
2023-04-30T13:11:38.494Z,10.01
2023-04-30T13:14:06.109Z,10.01
2023-04-30T13:16:34.752Z,10.00
2023-04-30T13:19:02.630Z,9.97
2023-04-30T13:21:32.382Z,9.97
2023-04-30T13:24:01.425Z,10.02
2023-04-30T13:26:29.895Z,10.02
2023-04-30T13:28:57.899Z,9.94
2023-04-30T13:31:25.423Z,9.83
2023-04-30T13:33:54.434Z,9.73
2023-04-30T13:36:23.223Z,9.73
2023-04-30T13:38:52.738Z,9.77
2023-04-30T13:41:22.073Z,9.75
2023-04-30T13:43:50.516Z,9.77
2023-04-30T13:46:17.960Z,9.81
2023-04-30T13:48:49.574Z,9.81
2023-04-30T13:51:21.649Z,9.78
2023-04-30T13:53:52.590Z,9.74
2023-04-30T13:56:25.295Z,9.69
2023-04-30T13:58:54.710Z,9.70
2023-04-30T14:01:28.322Z,9.64
2023-04-30T14:04:00.266Z,9.59
2023-04-30T14:06:29.811Z,9.54
2023-04-30T14:08:58.608Z,9.48
2023-04-30T14:11:29.107Z,9.44
2023-04-30T14:13:57.979Z,9.41
2023-04-30T14:16:25.448Z,9.44
2023-04-30T14:18:53.103Z,9.49
2023-04-30T14:21:21.438Z,9.57
2023-04-30T14:23:49.774Z,9.67
2023-04-30T14:26:17.920Z,9.67
2023-04-30T14:28:45.191Z,9.72
2023-04-30T14:31:33.319Z,9.79
2023-04-30T14:34:01.213Z,9.82
2023-04-30T14:36:30.437Z,9.86
2023-04-30T14:38:58.134Z,9.92
2023-04-30T14:41:28.473Z,9.89
2023-04-30T14:43:56.677Z,9.83
2023-04-30T14:46:23.861Z,9.79
2023-04-30T14:48:51.783Z,9.76
2023-04-30T14:51:19.272Z,9.72
2023-04-30T14:53:46.607Z,9.76
2023-04-30T14:56:14.385Z,9.79
2023-04-30T14:58:42.002Z,9.75
2023-04-30T15:01:10.060Z,9.74
2023-04-30T15:03:38.293Z,9.76
2023-04-30T15:06:10.604Z,9.79
2023-04-30T15:08:44.309Z,9.73
2023-04-30T15:11:12.763Z,9.67
2023-04-30T15:13:42.184Z,9.71
2023-04-30T15:16:11.431Z,9.79
2023-04-30T15:18:40.579Z,9.87
2023-04-30T15:21:08.536Z,9.85
2023-04-30T15:23:41.001Z,9.81
2023-04-30T15:26:08.631Z,9.73
2023-04-30T15:28:37.188Z,9.74
2023-04-30T15:31:07.166Z,9.77
2023-04-30T15:33:41.443Z,9.74
2023-04-30T15:36:10.119Z,9.72
2023-04-30T15:38:39.033Z,9.70
2023-04-30T15:41:06.193Z,9.70
2023-04-30T15:43:34.141Z,9.66
2023-04-30T15:46:02.761Z,9.71
2023-04-30T15:48:30.682Z,9.74
2023-04-30T15:50:58.082Z,9.74
2023-04-30T15:53:26.579Z,9.66
2023-04-30T15:55:56.635Z,9.57
2023-04-30T15:58:23.854Z,9.50
2023-04-30T16:00:53.704Z,9.48
2023-04-30T16:03:22.343Z,9.42
2023-04-30T16:05:50.167Z,9.45
2023-04-30T16:08:17.308Z,9.43
2023-04-30T16:10:47.172Z,9.40
2023-04-30T16:13:16.952Z,9.39
2023-04-30T16:15:45.180Z,9.46
2023-04-30T16:18:12.229Z,9.51
2023-04-30T16:20:41.354Z,9.58
2023-04-30T16:23:08.576Z,9.60
2023-04-30T16:25:36.428Z,9.59
2023-04-30T16:28:04.285Z,9.55
2023-04-30T16:30:33.441Z,9.53
2023-04-30T16:33:01.220Z,9.52
2023-04-30T16:35:30.821Z,9.43
2023-04-30T16:37:58.139Z,9.38
2023-04-30T16:40:25.653Z,9.38
2023-04-30T16:42:52.753Z,9.37
2023-04-30T16:45:20.341Z,9.32
2023-04-30T16:47:48.220Z,9.34
2023-04-30T16:50:15.889Z,9.38
2023-04-30T16:52:43.839Z,9.36
2023-04-30T16:55:11.729Z,9.38
2023-04-30T16:57:38.822Z,9.39
2023-04-30T17:00:12.662Z,9.44
2023-04-30T17:02:41.924Z,9.46
2023-04-30T17:05:10.887Z,9.46
2023-04-30T17:07:37.854Z,9.34
2023-04-30T17:10:07.229Z,9.33
2023-04-30T17:12:36.612Z,9.33
2023-04-30T17:15:04.634Z,9.39
2023-04-30T17:17:32.974Z,9.35
2023-04-30T17:20:00.413Z,9.29
2023-04-30T17:22:27.958Z,9.24
2023-04-30T17:24:58.958Z,9.18
2023-04-30T17:27:27.249Z,9.10
2023-04-30T17:29:55.235Z,9.04
2023-04-30T17:32:22.571Z,9.04
2023-04-30T17:34:51.248Z,8.99
2023-04-30T17:37:19.748Z,8.93
2023-04-30T17:39:47.714Z,8.85
2023-04-30T17:42:19.274Z,8.83
2023-04-30T17:44:48.321Z,8.83
2023-04-30T17:47:18.743Z,8.80
2023-04-30T17:49:47.240Z,8.74
2023-04-30T17:52:14.920Z,8.67
2023-04-30T17:54:43.939Z,8.61
2023-04-30T17:57:11.066Z,8.58
2023-04-30T17:59:40.452Z,8.59
2023-04-30T18:02:09.301Z,8.59
2023-04-30T18:04:37.246Z,8.54
2023-04-30T18:07:04.510Z,8.46
2023-04-30T18:09:32.416Z,8.39
2023-04-30T18:12:00.392Z,8.38
2023-04-30T18:14:28.492Z,8.36
2023-04-30T18:16:56.156Z,8.39
2023-04-30T18:19:27.524Z,8.38
2023-04-30T18:21:56.215Z,8.36
2023-04-30T18:24:27.372Z,8.36
2023-04-30T18:26:56.286Z,8.37
2023-04-30T18:29:24.228Z,8.34
2023-04-30T18:31:51.939Z,8.34
2023-04-30T18:34:20.245Z,8.29
2023-04-30T18:36:47.251Z,8.24
2023-04-30T18:39:15.675Z,8.22
2023-04-30T18:41:44.155Z,8.22
2023-04-30T18:44:13.103Z,8.18
2023-04-30T18:46:43.142Z,8.14
2023-04-30T18:49:11.542Z,8.11
2023-04-30T18:51:39.646Z,8.12
2023-04-30T18:54:09.149Z,8.12
2023-04-30T18:56:38.634Z,8.08
2023-04-30T18:59:06.265Z,8.05
2023-04-30T19:01:33.780Z,8.06
2023-04-30T19:04:02.859Z,8.08
2023-04-30T19:06:32.917Z,8.06
2023-04-30T19:09:00.430Z,8.04
2023-04-30T19:11:28.779Z,8.01
2023-04-30T19:13:58.623Z,8.01
2023-04-30T19:16:27.030Z,8.02
2023-04-30T19:18:54.717Z,8.00
2023-04-30T19:21:23.027Z,7.95
2023-04-30T19:23:50.865Z,7.93
2023-04-30T19:26:18.133Z,7.96
2023-04-30T19:28:47.850Z,8.00
2023-04-30T19:31:15.648Z,8.04
2023-04-30T19:33:42.915Z,8.04
2023-04-30T19:36:10.037Z,8.03
2023-04-30T19:38:37.181Z,8.02
2023-04-30T19:41:04.192Z,8.00
2023-04-30T19:43:31.958Z,7.95
2023-04-30T19:46:01.940Z,7.87
2023-04-30T19:48:30.900Z,7.81
2023-04-30T19:50:58.236Z,7.78
2023-04-30T19:53:25.907Z,7.81
2023-04-30T19:55:54.806Z,7.79
2023-04-30T19:58:22.008Z,7.78
2023-04-30T20:00:49.047Z,7.86
2023-04-30T20:03:16.819Z,7.89
2023-04-30T20:05:44.441Z,7.85
2023-04-30T20:08:11.870Z,7.80
2023-04-30T20:10:40.575Z,7.80
2023-04-30T20:13:08.771Z,7.75
2023-04-30T20:15:38.726Z,7.80
2023-04-30T20:18:05.882Z,7.81
2023-04-30T20:20:33.255Z,7.78
2023-04-30T20:23:14.258Z,7.75
2023-04-30T20:26:02.950Z,7.80
2023-04-30T20:28:31.034Z,7.87
2023-04-30T20:30:58.192Z,7.82
2023-04-30T20:33:26.717Z,7.80
2023-04-30T20:35:54.956Z,7.78
2023-04-30T20:38:22.215Z,7.72
2023-04-30T20:40:51.824Z,7.74
2023-04-30T20:43:19.481Z,7.79
2023-04-30T20:45:47.151Z,7.81
2023-04-30T20:48:14.837Z,7.80
2023-04-30T20:50:43.198Z,7.80
2023-04-30T20:53:12.000Z,7.89
2023-04-30T20:55:39.135Z,7.91
2023-04-30T20:58:08.350Z,7.97
2023-04-30T21:00:35.795Z,8.00
2023-04-30T21:03:04.125Z,7.89
2023-04-30T21:05:31.941Z,7.86
2023-04-30T21:08:00.726Z,7.85
2023-04-30T21:10:36.951Z,7.85
2023-04-30T21:13:04.649Z,7.79
2023-04-30T21:15:33.568Z,7.72
2023-04-30T21:18:01.062Z,7.73
2023-04-30T21:20:30.704Z,7.73
2023-04-30T21:22:58.684Z,7.66
2023-04-30T21:25:26.250Z,7.61
2023-04-30T21:27:54.335Z,7.60
2023-04-30T21:30:26.032Z,7.63
2023-04-30T21:32:57.548Z,7.60
2023-04-30T21:35:24.980Z,7.58
2023-04-30T21:37:56.744Z,7.57
2023-04-30T21:40:24.164Z,7.56
2023-04-30T21:42:53.500Z,7.56
2023-04-30T21:45:22.097Z,7.56
2023-04-30T21:47:49.235Z,7.51
2023-04-30T21:50:16.479Z,7.50
2023-04-30T21:52:44.424Z,7.55
2023-04-30T21:55:12.089Z,7.57
2023-04-30T21:57:39.135Z,7.56
2023-04-30T22:00:08.632Z,7.53
2023-04-30T22:02:39.018Z,7.47
2023-04-30T22:05:10.929Z,7.47
2023-04-30T22:07:39.454Z,7.45
2023-04-30T22:10:07.166Z,7.50
2023-04-30T22:12:35.127Z,7.48
2023-04-30T22:15:02.496Z,7.51
2023-04-30T22:17:32.100Z,7.49
2023-04-30T22:19:59.087Z,7.46
2023-04-30T22:22:26.514Z,7.45
2023-04-30T22:24:53.413Z,7.50
2023-04-30T22:27:21.109Z,7.53
2023-04-30T22:29:50.058Z,7.53
2023-04-30T22:32:18.872Z,7.55
2023-04-30T22:34:46.884Z,7.65
2023-04-30T22:37:14.402Z,7.64
2023-04-30T22:39:41.933Z,7.60
2023-04-30T22:42:09.607Z,7.65
2023-04-30T22:44:39.338Z,7.68
2023-04-30T22:47:06.470Z,7.69
2023-04-30T22:49:38.263Z,7.68
2023-04-30T22:52:06.767Z,7.61
2023-04-30T22:54:36.238Z,7.63
2023-04-30T22:57:03.310Z,7.66
2023-04-30T22:59:30.223Z,7.66
2023-04-30T23:01:57.701Z,7.66
2023-04-30T23:04:26.842Z,7.60
2023-04-30T23:06:54.473Z,7.67
2023-04-30T23:09:21.765Z,7.68
2023-04-30T23:11:48.601Z,7.63
2023-04-30T23:14:16.124Z,7.63
2023-04-30T23:16:45.013Z,7.70
2023-04-30T23:19:12.284Z,7.70
2023-04-30T23:21:39.748Z,7.71
2023-04-30T23:24:07.244Z,7.69
2023-04-30T23:26:34.497Z,7.64
2023-04-30T23:29:02.265Z,7.62
2023-04-30T23:31:31.374Z,7.63
2023-04-30T23:33:58.895Z,7.62
2023-04-30T23:36:26.286Z,7.60
2023-04-30T23:38:53.166Z,7.66
2023-04-30T23:41:20.381Z,7.71
2023-04-30T23:43:47.942Z,7.68
2023-04-30T23:46:16.012Z,7.64
2023-04-30T23:48:43.317Z,7.59
2023-04-30T23:51:10.939Z,7.56
2023-04-30T23:53:38.302Z,7.58
2023-04-30T23:56:06.651Z,7.55
2023-04-30T23:58:33.709Z,7.53
